Time;durP1;ratioP1;P1;durP2;ratioP2;P2;SDS_P1;SDS_P2;PMS_P1;PMS_P2;Temp;Humidity;BMP_temperature;BMP_pressure;BME280_temperature;BME280_humidity;BME280_pressure;Samples;Min_cycle;Max_cycle;Signal;HPM_P1;HPM_P2
2021/07/04 00:01:53;;;;;;;;;5.33;5.00;;;;;22.84;49.90;98137.59;4903510;28;104104;-83
2021/07/04 00:04:20;;;;;;;;;6.00;5.33;;;;;22.82;50.36;98137.91;4914651;28;102140;-83
2021/07/04 00:06:47;;;;;;;;;6.00;6.00;;;;;22.82;50.02;98132.41;4915934;28;102359;-83
2021/07/04 00:09:17;;;;;;;;;6.67;4.67;;;;;22.80;49.75;98134.63;4910113;28;102684;-83
2021/07/04 00:11:53;;;;;;;;;6.33;6.00;;;;;22.80;49.68;98137.38;4921069;28;103055;-83
2021/07/04 00:14:25;;;;;;;;;6.00;6.00;;;;;22.82;49.83;98137.09;4930207;28;104724;-83
2021/07/04 00:17:02;;;;;;;;;7.00;6.00;;;;;22.78;49.80;98128.59;4909463;28;103312;-83
2021/07/04 00:19:32;;;;;;;;;6.00;6.00;;;;;22.77;49.80;98124.19;4915519;28;103182;-83
2021/07/04 00:22:11;;;;;;;;;7.00;6.00;;;;;22.77;49.75;98126.94;4912096;28;104290;-83
2021/07/04 00:24:46;;;;;;;;;5.67;5.33;;;;;22.76;49.72;98128.03;4895207;28;102024;-83
2021/07/04 00:27:23;;;;;;;;;8.00;6.33;;;;;22.75;49.46;98129.16;4847904;28;105645;-84
2021/07/04 00:29:55;;;;;;;;;8.00;7.00;;;;;22.74;49.52;98124.75;4925154;28;105394;-83
2021/07/04 00:32:31;;;;;;;;;5.33;5.33;;;;;22.75;49.65;98126.41;4907795;28;103099;-83
2021/07/04 00:35:09;;;;;;;;;6.33;6.33;;;;;22.72;49.52;98127.00;4917800;28;102764;-83
2021/07/04 00:37:42;;;;;;;;;8.00;8.00;;;;;22.73;49.43;98125.06;4904621;28;103507;-83
2021/07/04 00:40:17;;;;;;;;;6.00;6.00;;;;;22.72;49.66;98129.75;4919448;28;102523;-83
2021/07/04 00:42:47;;;;;;;;;6.00;5.00;;;;;22.72;49.42;98126.16;4895094;28;107633;-83
2021/07/04 00:45:22;;;;;;;;;7.33;7.33;;;;;22.71;49.40;98127.28;4923629;28;108385;-83
2021/07/04 00:47:51;;;;;;;;;5.33;5.33;;;;;22.69;49.26;98120.09;4908899;28;104023;-83
2021/07/04 00:50:20;;;;;;;;;6.00;6.00;;;;;22.69;49.30;98127.56;4896647;28;102556;-83
2021/07/04 00:52:47;;;;;;;;;6.33;6.00;;;;;22.70;49.09;98120.94;4920642;28;104245;-83
2021/07/04 00:55:15;;;;;;;;;7.00;6.33;;;;;22.72;48.85;98115.97;4916205;28;103616;-82
2021/07/04 00:57:43;;;;;;;;;8.33;7.67;;;;;22.71;49.26;98117.06;4914859;28;102275;-82
2021/07/04 01:00:11;;;;;;;;;9.00;8.00;;;;;22.71;48.84;98119.00;4894409;28;103407;-82
2021/07/04 01:02:39;;;;;;;;;9.33;8.00;;;;;22.71;48.57;98117.06;4900502;28;104089;-81
2021/07/04 01:05:09;;;;;;;;;9.33;8.33;;;;;22.70;48.30;98115.41;4877821;28;102504;-82
2021/07/04 01:07:37;;;;;;;;;11.00;9.33;;;;;22.70;48.23;98115.41;4879340;28;102710;-82
2021/07/04 01:10:09;;;;;;;;;10.00;10.00;;;;;22.71;48.15;98108.81;4871469;28;102491;-82
2021/07/04 01:12:46;;;;;;;;;9.33;9.33;;;;;22.69;48.46;98108.25;4913028;28;103078;-82
2021/07/04 01:15:25;;;;;;;;;7.33;6.67;;;;;22.69;48.03;98108.25;4894087;28;105051;-82
2021/07/04 01:18:06;;;;;;;;;6.67;6.67;;;;;22.69;47.80;98108.25;4849439;28;102770;-82
2021/07/04 01:20:40;;;;;;;;;8.00;8.00;;;;;22.69;47.86;98113.75;4898323;28;102408;-83
2021/07/04 01:23:16;;;;;;;;;11.33;8.00;;;;;22.66;47.81;98106.06;4914119;28;104263;-82
2021/07/04 01:25:54;;;;;;;;;9.67;8.33;;;;;22.66;47.70;98117.91;4908681;28;102225;-83
2021/07/04 01:28:26;;;;;;;;;8.33;8.00;;;;;22.63;47.66;98107.47;4832874;28;102697;-82
2021/07/04 01:31:02;;;;;;;;;8.33;8.00;;;;;22.57;47.46;98116.91;4883162;28;102293;-83
2021/07/04 01:33:35;;;;;;;;;10.67;8.33;;;;;22.59;47.25;98113.84;4928267;28;103083;-82
2021/07/04 01:36:13;;;;;;;;;8.00;8.00;;;;;22.58;47.39;98117.72;4913647;28;102579;-82
2021/07/04 01:38:45;;;;;;;;;9.33;8.33;;;;;22.55;47.36;98121.06;4894234;28;102140;-83
2021/07/04 01:41:22;;;;;;;;;9.00;8.00;;;;;22.55;47.44;98124.66;4932098;28;102426;-82
2021/07/04 01:43:54;;;;;;;;;12.00;9.33;;;;;22.54;47.25;98120.25;4920103;28;109646;-82
2021/07/04 01:46:27;;;;;;;;;10.00;10.00;;;;;22.51;47.49;98128.28;4909820;28;102261;-82
2021/07/04 01:48:58;;;;;;;;;10.67;9.00;;;;;22.47;47.35;98122.50;4926524;28;103001;-84
2021/07/04 01:51:25;;;;;;;;;8.00;7.33;;;;;22.47;47.33;98128.00;4908301;28;102241;-83
2021/07/04 01:53:52;;;;;;;;;9.00;9.00;;;;;22.46;47.05;98125.56;4899320;28;104352;-83
2021/07/04 01:56:20;;;;;;;;;10.00;10.00;;;;;22.44;46.78;98123.09;4933749;28;104007;-84
2021/07/04 01:58:47;;;;;;;;;10.67;9.00;;;;;22.42;47.26;98132.75;4915542;28;103377;-84
2021/07/04 02:01:14;;;;;;;;;14.00;10.00;;;;;22.41;47.00;98128.34;4901435;28;102239;-83
2021/07/04 02:03:41;;;;;;;;;10.33;8.00;;;;;22.42;47.09;98130.84;4923628;28;104701;-83
2021/07/04 02:06:08;;;;;;;;;8.00;8.00;;;;;22.38;46.86;98126.97;4903800;28;102153;-83
2021/07/04 02:08:35;;;;;;;;;11.33;10.33;;;;;22.35;46.96;98124.81;4917185;28;102381;-83
2021/07/04 02:11:02;;;;;;;;;12.00;11.00;;;;;22.30;47.09;98130.38;4928364;28;103818;-84
2021/07/04 02:13:30;;;;;;;;;10.33;10.00;;;;;22.28;47.14;98132.59;4915851;28;104084;-83
2021/07/04 02:15:57;;;;;;;;;10.00;10.00;;;;;22.31;47.06;98131.19;4915684;28;102501;-85
2021/07/04 02:18:24;;;;;;;;;11.00;10.00;;;;;22.31;47.16;98132.03;4904622;28;102534;-84
2021/07/04 02:20:55;;;;;;;;;11.00;7.00;;;;;22.30;46.89;98137.81;4907464;28;102634;-84
2021/07/04 02:23:27;;;;;;;;;7.00;7.00;;;;;22.25;46.95;98136.75;4905287;28;104095;-84
2021/07/04 02:25:54;;;;;;;;;10.33;9.00;;;;;22.21;46.92;98132.91;4901209;28;102622;-84
2021/07/04 02:28:22;;;;;;;;;12.33;10.00;;;;;22.19;46.69;98131.56;4912547;28;102657;-84
2021/07/04 02:30:51;;;;;;;;;11.33;10.00;;;;;22.18;46.86;98136.25;4912050;28;104966;-83
2021/07/04 02:33:18;;;;;;;;;9.00;8.33;;;;;22.16;46.85;98129.38;4918900;28;104128;-85
2021/07/04 02:35:47;;;;;;;;;11.33;11.33;;;;;22.12;46.86;98131.88;4908479;28;102138;-85
2021/07/04 02:38:15;;;;;;;;;9.00;9.00;;;;;22.13;46.60;98138.22;4914499;28;106005;-85
2021/07/04 02:40:42;;;;;;;;;10.67;9.67;;;;;22.09;46.14;98132.47;4929096;28;102277;-85
2021/07/04 02:43:15;;;;;;;;;11.00;11.00;;;;;22.11;46.65;98143.22;4913101;28;104090;-85
2021/07/04 02:45:44;;;;;;;;;11.00;11.00;;;;;22.07;46.68;98140.19;4924800;28;102529;-83
2021/07/04 02:48:11;;;;;;;;;12.33;12.00;;;;;22.10;46.49;98144.31;4928638;28;102533;-83
2021/07/04 02:50:39;;;;;;;;;9.67;9.67;;;;;22.06;46.29;98143.25;4908803;28;102404;-83
2021/07/04 02:53:06;;;;;;;;;12.00;10.00;;;;;22.04;46.52;98148.19;4930802;28;104117;-83
2021/07/04 02:55:33;;;;;;;;;12.00;11.00;;;;;22.01;46.30;98146.84;4908098;28;103403;-83
2021/07/04 02:58:00;;;;;;;;;11.00;11.00;;;;;22.01;46.53;98151.53;4895769;28;102334;-83
2021/07/04 03:00:28;;;;;;;;;12.33;12.00;;;;;21.99;46.40;98149.06;4930414;28;102441;-83
2021/07/04 03:02:55;;;;;;;;;13.00;12.00;;;;;21.95;46.39;98153.50;4911936;28;104013;-82
2021/07/04 03:05:22;;;;;;;;;14.00;13.00;;;;;21.94;46.40;98151.00;4903653;28;102823;-84
2021/07/04 03:07:49;;;;;;;;;10.33;10.33;;;;;21.95;46.09;98145.22;4910911;28;102186;-83
2021/07/04 03:10:19;;;;;;;;;10.00;10.00;;;;;21.95;46.28;98153.50;4903535;28;102546;-83
2021/07/04 03:12:46;;;;;;;;;12.67;10.67;;;;;21.93;45.95;98157.66;4911755;28;108739;-84
2021/07/04 03:15:14;;;;;;;;;14.00;12.00;;;;;21.92;46.16;98155.97;4925897;28;102719;-86
2021/07/04 03:17:41;;;;;;;;;10.00;10.00;;;;;21.93;46.01;98157.66;4919765;28;102418;-86
2021/07/04 03:20:13;;;;;;;;;12.00;11.00;;;;;21.89;46.11;98154.59;4924008;28;101979;-86
2021/07/04 03:22:40;;;;;;;;;12.00;11.67;;;;;21.86;45.73;98166.19;4919339;28;104319;-85
2021/07/04 03:25:08;;;;;;;;;11.67;10.67;;;;;21.86;45.98;98166.19;4912889;28;102020;-86
2021/07/04 03:27:36;;;;;;;;;11.33;10.67;;;;;21.86;45.60;98165.34;4919547;28;102611;-85
2021/07/04 03:30:07;;;;;;;;;13.00;13.00;;;;;21.83;46.11;98166.75;4923789;28;102465;-86
2021/07/04 03:32:34;;;;;;;;;12.00;12.00;;;;;21.83;45.67;98165.94;4906067;28;104086;-85
2021/07/04 03:35:03;;;;;;;;;12.67;11.33;;;;;21.82;45.93;98159.59;4911518;28;102253;-86
2021/07/04 03:37:30;;;;;;;;;13.67;11.00;;;;;21.81;46.03;98167.03;4922006;28;102570;-86
2021/07/04 03:39:58;;;;;;;;;12.00;11.00;;;;;21.72;45.61;98156.91;4913534;28;102416;-85
2021/07/04 03:42:25;;;;;;;;;14.00;11.00;;;;;21.79;45.83;98171.97;4908516;28;105841;-85
2021/07/04 03:44:52;;;;;;;;;11.00;10.00;;;;;21.79;45.70;98176.69;4928693;28;102212;-84
2021/07/04 03:47:23;;;;;;;;;11.00;10.33;;;;;21.75;46.05;98165.41;4921530;28;102607;-84
2021/07/04 03:49:51;;;;;;;;;9.33;9.33;;;;;21.78;45.62;98169.53;4919492;28;102703;-83
2021/07/04 03:52:18;;;;;;;;;12.00;12.00;;;;;21.78;45.61;98166.78;4924307;28;104500;-84
2021/07/04 03:54:46;;;;;;;;;14.33;11.67;;;;;21.80;45.51;98172.81;4908208;28;102098;-84
2021/07/04 03:57:22;;;;;;;;;11.33;10.00;;;;;21.73;45.04;98166.81;4919732;28;102513;-84
2021/07/04 03:59:56;;;;;;;;;11.00;11.00;;;;;21.73;45.62;98178.66;4912202;28;102890;-84
2021/07/04 04:02:24;;;;;;;;;11.33;10.67;;;;;21.71;45.70;98180.00;4898824;28;107567;-83
2021/07/04 04:04:57;;;;;;;;;11.00;11.00;;;;;21.71;45.69;98180.84;4928483;28;102363;-84
2021/07/04 04:07:24;;;;;;;;;14.67;12.33;;;;;21.70;45.96;98181.16;4925786;28;103254;-83
2021/07/04 04:09:52;;;;;;;;;12.00;11.00;;;;;21.70;45.58;98183.91;4907825;28;102788;-83
2021/07/04 04:12:19;;;;;;;;;12.33;11.00;;;;;21.74;45.41;98179.47;4918287;28;103943;-82
2021/07/04 04:14:47;;;;;;;;;11.33;11.00;;;;;21.72;45.39;98188.00;4923715;28;102317;-87
2021/07/04 04:17:14;;;;;;;;;13.00;13.00;;;;;21.72;45.77;98178.91;4916141;28;102001;-85
2021/07/04 04:19:42;;;;;;;;;12.33;12.33;;;;;21.69;45.68;98182.25;4928431;28;102278;-85
2021/07/04 04:22:09;;;;;;;;;13.00;12.33;;;;;21.67;45.31;98177.00;4906628;28;104152;-86
2021/07/04 04:24:36;;;;;;;;;11.33;11.00;;;;;21.66;45.40;98169.03;4913103;28;102043;-85
2021/07/04 04:27:03;;;;;;;;;14.33;12.67;;;;;21.62;45.37;98168.78;4928132;28;101986;-85
2021/07/04 04:29:31;;;;;;;;;11.33;10.67;;;;;21.62;45.68;98165.19;4915764;28;106247;-85
2021/07/04 04:31:58;;;;;;;;;12.33;10.67;;;;;21.61;45.31;98174.59;4915731;28;104201;-85
2021/07/04 04:34:25;;;;;;;;;12.67;11.33;;;;;21.62;45.82;98170.69;4931791;28;103367;-84
2021/07/04 04:36:52;;;;;;;;;13.67;12.00;;;;;21.64;45.31;98163.00;4906352;28;103503;-84
2021/07/04 04:39:22;;;;;;;;;11.33;9.00;;;;;21.60;45.20;98168.25;4923116;28;103385;-85
2021/07/04 04:41:49;;;;;;;;;11.67;11.33;;;;;21.61;45.57;98163.56;4927128;28;108791;-86
2021/07/04 04:44:32;;;;;;;;;14.00;13.00;;;;;21.61;45.24;98169.09;4849267;28;102675;-85
2021/07/04 04:46:59;;;;;;;;;12.00;11.33;;;;;21.61;46.00;98169.09;4907671;28;102721;-84
2021/07/04 04:49:26;;;;;;;;;13.33;11.33;;;;;21.57;45.61;98173.50;4937414;28;102858;-84
2021/07/04 04:51:53;;;;;;;;;10.00;9.00;;;;;21.61;45.65;98171.84;4918861;28;104080;-84
2021/07/04 04:54:20;;;;;;;;;15.67;12.67;;;;;21.59;45.79;98176.78;4920098;28;102481;-85
2021/07/04 04:56:47;;;;;;;;;13.00;13.00;;;;;21.61;45.44;98177.34;4927402;28;102613;-85
2021/07/04 04:59:15;;;;;;;;;13.00;13.00;;;;;21.59;45.59;98166.59;4914469;28;102721;-85
2021/07/04 05:01:42;;;;;;;;;14.33;12.33;;;;;21.58;45.70;98181.47;4912593;28;104092;-84
2021/07/04 05:04:09;;;;;;;;;12.00;12.00;;;;;21.56;45.86;98178.19;4922256;28;102406;-84
2021/07/04 05:06:36;;;;;;;;;12.33;12.33;;;;;21.57;45.47;98184.50;4903960;28;110057;-84
2021/07/04 05:09:04;;;;;;;;;13.00;11.00;;;;;21.55;45.90;98175.69;4915838;28;102622;-84
2021/07/04 05:11:31;;;;;;;;;12.00;12.00;;;;;21.58;45.47;98175.13;4902530;28;104305;-84
2021/07/04 05:13:58;;;;;;;;;11.00;11.00;;;;;21.56;45.61;98169.94;4911431;28;102110;-84
2021/07/04 05:16:25;;;;;;;;;13.00;12.33;;;;;21.56;45.88;98171.84;4927751;28;102087;-83
2021/07/04 05:18:52;;;;;;;;;14.33;10.67;;;;;21.55;46.11;98164.69;4912710;28;102576;-82
2021/07/04 05:21:19;;;;;;;;;10.00;10.00;;;;;21.52;46.04;98168.84;4916792;28;104122;-83
2021/07/04 05:23:47;;;;;;;;;11.33;10.33;;;;;21.55;46.00;98165.53;4925165;28;102452;-83
2021/07/04 05:26:17;;;;;;;;;11.00;11.00;;;;;21.56;45.89;98166.34;4914357;28;102426;-83
2021/07/04 05:28:44;;;;;;;;;13.67;12.67;;;;;21.56;45.68;98172.69;4907023;28;102596;-83
2021/07/04 05:31:11;;;;;;;;;11.67;11.00;;;;;21.55;46.02;98160.03;4902855;28;104110;-83
2021/07/04 05:33:38;;;;;;;;;9.00;9.00;;;;;21.58;46.27;98159.44;4913995;28;103586;-83
2021/07/04 05:36:06;;;;;;;;;12.33;12.00;;;;;21.58;46.06;98158.63;4908664;28;102104;-83
2021/07/04 05:38:35;;;;;;;;;11.00;10.00;;;;;21.60;46.21;98159.19;4938094;28;102592;-82
2021/07/04 05:41:02;;;;;;;;;12.00;10.00;;;;;21.60;45.93;98150.91;4918524;28;104322;-82
2021/07/04 05:43:29;;;;;;;;;14.33;12.33;;;;;21.59;46.10;98161.09;4923773;28;102633;-83
2021/07/04 05:46:00;;;;;;;;;12.67;11.00;;;;;21.58;46.05;98153.13;4939000;28;102426;-82
2021/07/04 05:48:28;;;;;;;;;11.67;10.67;;;;;21.58;46.60;98161.38;4915580;28;102801;-83
2021/07/04 05:50:55;;;;;;;;;11.33;10.33;;;;;21.61;46.70;98160.81;4914734;28;104061;-82
2021/07/04 05:53:22;;;;;;;;;9.00;8.00;;;;;21.59;46.24;98157.53;4922816;28;102291;-83
2021/07/04 05:55:49;;;;;;;;;11.67;9.33;;;;;21.56;46.67;98158.91;4910704;28;102658;-83
2021/07/04 05:58:16;;;;;;;;;10.33;9.33;;;;;21.58;46.42;98164.13;4914541;28;102724;-84
2021/07/04 06:00:43;;;;;;;;;9.33;8.67;;;;;21.62;46.60;98165.19;4934062;28;103846;-83
2021/07/04 06:03:10;;;;;;;;;14.00;10.33;;;;;21.66;46.39;98160.78;4908705;28;102178;-83
2021/07/04 06:05:38;;;;;;;;;8.00;7.00;;;;;21.66;46.56;98160.78;4921808;28;105052;-84
2021/07/04 06:08:05;;;;;;;;;11.00;10.00;;;;;;;;4921245;28;102556;-84
2021/07/04 06:10:33;;;;;;;;;8.33;8.33;;;;;;;;4917821;28;105519;-83
2021/07/04 06:13:01;;;;;;;;;8.33;8.33;;;;;21.69;46.56;98166.56;4917058;28;102586;-83
2021/07/04 06:15:29;;;;;;;;;10.00;9.67;;;;;21.71;46.94;98172.59;4932324;28;102543;-85
2021/07/04 06:17:56;;;;;;;;;10.00;10.00;;;;;21.74;46.74;98176.72;4913936;28;102558;-85
2021/07/04 06:20:23;;;;;;;;;9.00;8.33;;;;;21.75;46.71;98170.09;4936148;28;103771;-86
2021/07/04 06:22:53;;;;;;;;;10.00;10.00;;;;;21.75;47.16;98165.41;4925149;28;102722;-85
2021/07/04 06:25:22;;;;;;;;;12.00;10.33;;;;;21.77;47.28;98168.72;4916788;28;102347;-85
2021/07/04 06:27:49;;;;;;;;;9.33;9.00;;;;;21.81;46.83;98167.03;4931629;28;102609;-87
2021/07/04 06:30:16;;;;;;;;;10.33;9.33;;;;;21.81;47.36;98168.97;4908414;28;104143;-86
2021/07/04 06:32:44;;;;;;;;;9.00;8.00;;;;;21.84;47.46;98167.59;4907202;28;105197;-87
2021/07/04 06:35:12;;;;;;;;;9.33;8.67;;;;;21.84;47.03;98167.59;4917626;28;103382;-85
2021/07/04 06:37:41;;;;;;;;;6.00;5.33;;;;;21.88;47.12;98166.72;4923312;28;102480;-86
2021/07/04 06:40:09;;;;;;;;;7.00;6.00;;;;;21.91;47.17;98171.66;4921374;28;110111;-85
2021/07/04 06:42:36;;;;;;;;;9.33;9.00;;;;;21.93;46.70;98163.94;4925015;28;102591;-85
2021/07/04 06:45:06;;;;;;;;;7.33;7.33;;;;;21.95;46.92;98175.50;4917875;28;102714;-83
2021/07/04 06:47:33;;;;;;;;;7.00;7.00;;;;;21.95;46.70;98175.50;4911962;28;111541;-83
2021/07/04 06:50:01;;;;;;;;;6.67;6.67;;;;;21.97;47.18;98170.56;4931149;28;104136;-82
2021/07/04 06:52:28;;;;;;;;;7.67;6.67;;;;;21.99;46.79;98176.59;4927878;28;102285;-83
2021/07/04 06:54:55;;;;;;;;;8.00;6.67;;;;;22.01;47.36;98173.56;4922733;28;102432;-82
2021/07/04 06:57:28;;;;;;;;;8.00;7.00;;;;;22.03;47.08;98182.34;4940546;28;103125;-83
2021/07/04 07:00:08;;;;;;;;;7.00;6.00;;;;;22.04;47.28;98173.81;4909730;28;109208;-83
2021/07/04 07:02:36;;;;;;;;;8.67;7.33;;;;;22.04;47.16;98179.31;4909692;28;102595;-82
2021/07/04 07:05:07;;;;;;;;;7.00;6.00;;;;;22.07;47.15;98178.72;4930558;28;102711;-83
2021/07/04 07:07:34;;;;;;;;;7.67;7.00;;;;;22.08;47.08;98169.38;4917700;28;105324;-83
2021/07/04 07:10:02;;;;;;;;;8.67;8.00;;;;;22.08;47.16;98174.06;4905436;28;105670;-82
2021/07/04 07:12:29;;;;;;;;;7.00;7.00;;;;;22.08;47.46;98172.13;4921217;28;102635;-82
2021/07/04 07:14:56;;;;;;;;;7.33;6.00;;;;;22.10;47.38;98164.41;4910943;28;102388;-84
2021/07/04 07:17:24;;;;;;;;;11.00;8.00;;;;;22.12;47.04;98170.44;4931678;28;102473;-85
2021/07/04 07:19:52;;;;;;;;;7.00;7.00;;;;;22.13;47.01;98171.25;4933852;28;108740;-84
2021/07/04 07:22:20;;;;;;;;;6.67;6.00;;;;;22.14;47.30;98173.75;4905568;28;102744;-84
2021/07/04 07:24:47;;;;;;;;;7.00;7.00;;;;;22.16;47.26;98182.53;4929488;28;102152;-85
2021/07/04 07:27:15;;;;;;;;;7.00;6.00;;;;;22.16;46.93;98177.03;4929732;28;104556;-85
2021/07/04 07:29:42;;;;;;;;;8.00;7.00;;;;;22.16;47.00;98174.25;4900030;28;104086;-85
2021/07/04 07:32:09;;;;;;;;;6.00;5.33;;;;;22.19;47.29;98175.63;4913360;28;103299;-84
2021/07/04 07:34:36;;;;;;;;;7.33;7.00;;;;;22.18;47.42;98169.31;4921941;28;102560;-85
2021/07/04 07:37:03;;;;;;;;;6.33;6.33;;;;;22.20;47.06;98180.84;4918727;28;102570;-84
2021/07/04 07:39:31;;;;;;;;;7.33;7.00;;;;;22.20;47.41;98177.25;4927640;28;104403;-84
2021/07/04 07:41:58;;;;;;;;;7.00;7.00;;;;;22.22;47.37;98175.06;4903563;28;102521;-84
2021/07/04 07:44:25;;;;;;;;;6.00;5.67;;;;;22.22;47.11;98175.06;4919942;28;103775;-85
2021/07/04 07:46:52;;;;;;;;;8.00;8.00;;;;;22.23;47.28;98172.03;4925853;28;102130;-86
2021/07/04 07:49:19;;;;;;;;;9.33;7.00;;;;;22.24;47.18;98168.13;4913958;28;104247;-84
2021/07/04 07:51:49;;;;;;;;;8.00;6.00;;;;;22.25;47.42;98169.78;4899554;28;102451;-85
2021/07/04 07:54:17;;;;;;;;;7.33;6.33;;;;;22.27;47.52;98161.25;4915599;28;102813;-83
2021/07/04 07:56:45;;;;;;;;;6.67;6.33;;;;;22.28;47.40;98164.84;4900018;28;102536;-83
2021/07/04 07:59:13;;;;;;;;;7.00;7.00;;;;;22.31;47.42;98167.00;4926784;28;104049;-82
2021/07/04 08:01:40;;;;;;;;;6.33;6.33;;;;;22.31;47.33;98167.00;4920590;28;102643;-83
2021/07/04 08:04:08;;;;;;;;;6.00;6.00;;;;;22.30;47.47;98168.09;4919884;28;106710;-83
2021/07/04 08:06:35;;;;;;;;;10.33;7.33;;;;;22.32;47.21;98158.47;4916994;28;103700;-83
2021/07/04 08:09:02;;;;;;;;;4.33;4.33;;;;;22.32;47.26;98160.38;4903774;28;104303;-82
2021/07/04 08:11:30;;;;;;;;;7.00;6.33;;;;;22.34;47.44;98152.66;4914376;28;103744;-82
2021/07/04 08:13:57;;;;;;;;;7.00;7.00;;;;;22.35;47.46;98154.28;4914955;28;102337;-82
2021/07/04 08:16:24;;;;;;;;;7.00;7.00;;;;;22.35;47.40;98151.53;4929503;28;102738;-83
2021/07/04 08:18:51;;;;;;;;;7.33;6.00;;;;;22.36;47.19;98145.75;4913480;28;108149;-83
2021/07/04 08:21:19;;;;;;;;;6.33;5.33;;;;;22.37;47.49;98143.81;4916348;28;102222;-83
2021/07/04 08:23:46;;;;;;;;;6.00;6.00;;;;;22.39;47.35;98142.41;4910675;28;103834;-83
2021/07/04 08:26:13;;;;;;;;;6.67;6.00;;;;;22.39;47.54;98138.81;4899556;28;103622;-83
2021/07/04 08:28:40;;;;;;;;;8.00;8.00;;;;;22.40;47.84;98133.03;4924323;28;103791;-83
2021/07/04 08:31:08;;;;;;;;;6.33;5.00;;;;;22.42;47.77;98143.78;4925783;28;102181;-83
2021/07/04 08:33:35;;;;;;;;;6.33;6.33;;;;;22.41;47.78;98120.09;4908665;28;102666;-82
2021/07/04 08:36:03;;;;;;;;;6.00;5.33;;;;;22.43;47.63;98128.88;4923856;28;102702;-83
2021/07/04 08:38:30;;;;;;;;;7.00;6.33;;;;;22.44;47.56;98130.53;4916084;28;104052;-82
2021/07/04 08:40:58;;;;;;;;;6.00;5.67;;;;;22.45;47.80;98129.41;4902421;28;102174;-82
2021/07/04 08:43:26;;;;;;;;;7.67;7.33;;;;;22.46;47.93;98136.59;4931843;28;102885;-84
2021/07/04 08:45:53;;;;;;;;;5.00;5.00;;;;;22.47;47.72;98132.72;4911543;28;102572;-83
2021/07/04 08:48:20;;;;;;;;;6.00;6.00;;;;;22.48;47.55;98129.66;4908562;28;104417;-83
2021/07/04 08:50:48;;;;;;;;;7.00;6.00;;;;;22.49;47.66;98127.72;4914464;28;102645;-83
2021/07/04 08:53:15;;;;;;;;;7.00;6.00;;;;;22.50;47.46;98137.66;4919207;28;102288;-84
2021/07/04 08:55:43;;;;;;;;;6.00;6.00;;;;;22.50;47.84;98127.44;4905713;28;102607;-84
2021/07/04 08:58:11;;;;;;;;;8.00;7.00;;;;;22.52;47.84;98124.38;4931205;28;104158;-84
2021/07/04 09:00:38;;;;;;;;;6.00;6.00;;;;;22.53;47.78;98128.78;4909189;28;102205;-83
2021/07/04 09:03:24;;;;;;;;;8.33;6.00;;;;;22.54;47.88;98130.44;4911405;28;102614;-83
2021/07/04 09:05:52;;;;;;;;;6.33;5.33;;;;;22.55;47.88;98123.81;4920408;28;102508;-84
2021/07/04 09:08:20;;;;;;;;;5.00;5.00;;;;;22.55;48.05;98123.81;4897572;28;104183;-84
2021/07/04 09:11:08;;;;;;;;;6.00;5.00;;;;;22.58;48.03;98123.22;4906125;28;103749;-84
2021/07/04 09:13:35;;;;;;;;;6.00;5.33;;;;;22.58;47.83;98117.72;4853947;28;103558;-84
2021/07/04 09:16:07;;;;;;;;;5.00;3.33;;;;;22.59;47.73;98114.69;4898582;28;102707;-84
2021/07/04 09:18:35;;;;;;;;;5.67;5.67;;;;;22.60;47.87;98112.75;4912379;28;104317;-84
2021/07/04 09:21:23;;;;;;;;;5.00;5.00;;;;;22.61;48.03;98111.63;4913799;28;102558;-83
2021/07/04 09:23:51;;;;;;;;;5.00;5.00;;;;;22.63;47.91;98112.16;4919781;28;102660;-84
2021/07/04 09:26:37;;;;;;;;;5.00;4.33;;;;;22.64;47.88;98111.88;4909791;28;102499;-85
2021/07/04 09:29:05;;;;;;;;;5.00;5.00;;;;;22.64;47.95;98111.06;4851313;28;110327;-86
2021/07/04 09:31:32;;;;;;;;;5.00;5.00;;;;;22.65;48.03;98110.75;4904020;28;102490;-85
2021/07/04 09:34:12;;;;;;;;;5.33;5.33;;;;;22.65;47.72;98108.00;4889151;28;102153;-85
2021/07/04 09:36:40;;;;;;;;;5.33;5.00;;;;;22.68;47.75;98106.59;4911239;28;103778;-86
2021/07/04 09:39:20;;;;;;;;;6.67;6.67;;;;;22.62;47.94;98088.47;4912970;28;103883;-86
2021/07/04 09:42:10;;;;;;;;;5.00;5.00;;;;;22.71;48.00;98099.69;4913822;28;111761;-86
2021/07/04 09:44:38;;;;;;;;;5.67;5.67;;;;;22.72;47.86;98091.16;4848828;28;102711;-86
2021/07/04 09:47:19;;;;;;;;;5.00;4.33;;;;;22.73;47.93;98100.25;4924367;28;102505;-86
2021/07/04 09:49:47;;;;;;;;;5.00;5.00;;;;;22.73;47.92;98103.84;4889607;28;103834;-87
2021/07/04 09:52:17;;;;;;;;;6.33;5.33;;;;;22.73;48.07;98091.97;4906620;28;102216;-86
2021/07/04 09:55:03;;;;;;;;;4.67;4.67;;;;;22.70;47.92;98082.34;4926833;28;102546;-83
2021/07/04 09:57:59;;;;;;;;;6.00;5.00;;;;;22.75;47.81;98093.31;4908308;28;102744;-84
2021/07/04 10:00:28;;;;;;;;;4.00;4.00;;;;;22.76;48.03;98089.47;4907958;28;109966;-84
2021/07/04 10:03:09;;;;;;;;;5.33;4.67;;;;;22.78;47.88;98080.91;4925712;28;102380;-84
2021/07/04 10:05:43;;;;;;;;;5.00;5.00;;;;;22.78;47.97;98083.66;4850513;28;107534;-84
2021/07/04 10:08:21;;;;;;;;;4.67;4.00;;;;;22.79;47.98;98074.25;4921356;28;102627;-84
2021/07/04 10:10:49;;;;;;;;;5.00;5.00;;;;;22.79;47.72;98065.97;4918972;28;104284;-84
2021/07/04 10:13:16;;;;;;;;;5.00;4.00;;;;;22.81;47.71;98055.50;4902815;28;102106;-84
2021/07/04 10:15:43;;;;;;;;;6.00;6.00;;;;;22.82;48.06;98062.66;4915736;28;109626;-83
2021/07/04 10:18:11;;;;;;;;;5.00;5.00;;;;;22.82;48.18;98055.22;4912160;28;102738;-84
2021/07/04 10:20:39;;;;;;;;;5.00;5.00;;;;;22.82;48.00;98063.47;4900688;28;104091;-83
2021/07/04 10:23:08;;;;;;;;;4.00;4.00;;;;;22.85;47.86;98051.84;4917316;28;102369;-83
2021/07/04 10:25:37;;;;;;;;;6.33;6.33;;;;;22.85;48.11;98051.03;4910796;28;102580;-84
2021/07/04 10:28:05;;;;;;;;;5.00;4.33;;;;;22.88;48.05;98044.91;4906104;28;102599;-83
2021/07/04 10:30:33;;;;;;;;;3.67;3.67;;;;;22.88;47.90;98048.50;4886390;28;104038;-83
2021/07/04 10:33:18;;;;;;;;;5.00;4.00;;;;;22.90;47.94;98040.78;4915811;28;102673;-83
2021/07/04 10:36:12;;;;;;;;;4.00;4.00;;;;;22.90;48.11;98032.50;4905742;28;102233;-83
2021/07/04 10:38:51;;;;;;;;;5.00;5.00;;;;;22.91;48.10;98028.63;4857910;28;103939;-83
2021/07/04 10:41:21;;;;;;;;;4.33;4.33;;;;;22.93;48.01;98031.91;4920664;28;103465;-84
2021/07/04 10:44:04;;;;;;;;;5.00;5.00;;;;;22.94;48.00;98025.28;4907196;28;102159;-84
2021/07/04 10:46:44;;;;;;;;;4.33;4.00;;;;;22.95;48.13;98021.41;4909534;28;102591;-83
2021/07/04 10:49:17;;;;;;;;;3.00;3.00;;;;;22.96;47.96;98030.50;4903942;28;102190;-84
2021/07/04 10:51:54;;;;;;;;;3.67;3.00;;;;;22.96;48.01;98031.34;4900300;28;105529;-84
2021/07/04 10:54:44;;;;;;;;;5.00;5.00;;;;;22.96;48.04;98025.81;4920401;28;102449;-86
2021/07/04 10:57:20;;;;;;;;;5.00;4.67;;;;;22.96;48.17;98023.06;4847169;28;102666;-86
2021/07/04 11:02:54;;;;;;;;;3.33;3.00;;;;;23.00;47.91;98015.84;4905678;28;109153;-87
2021/07/04 11:05:39;;;;;;;;;3.00;3.00;;;;;23.01;48.16;98017.47;4865715;28;103405;-86
2021/07/04 11:08:14;;;;;;;;;5.00;4.00;;;;;23.01;48.09;98003.66;4852539;28;102642;-86
2021/07/04 11:10:54;;;;;;;;;4.00;4.00;;;;;23.03;48.03;98009.72;4913649;28;102461;-86
2021/07/04 11:13:23;;;;;;;;;5.67;5.00;;;;;23.05;48.01;98004.75;4919226;28;104623;-87
2021/07/04 11:16:04;;;;;;;;;5.00;3.00;;;;;23.06;48.25;98008.28;4910608;28;105738;-87
2021/07/04 11:18:41;;;;;;;;;4.00;3.67;;;;;23.06;48.03;98003.59;4903210;28;102570;-85
2021/07/04 11:21:10;;;;;;;;;4.33;3.33;;;;;23.07;47.95;98009.94;4904319;28;102452;-86
2021/07/04 11:23:37;;;;;;;;;4.67;4.67;;;;;23.08;48.08;98004.16;4909404;28;104191;-86
2021/07/04 11:26:08;;;;;;;;;5.00;5.00;;;;;23.08;48.02;97995.03;4905768;28;102603;-84
2021/07/04 11:28:36;;;;;;;;;4.00;4.00;;;;;23.06;48.09;97992.56;4925404;28;103895;-84
2021/07/04 11:31:16;;;;;;;;;5.00;4.00;;;;;23.09;48.28;97992.00;4909311;28;102297;-84
2021/07/04 11:33:44;;;;;;;;;4.00;4.00;;;;;23.10;48.11;97988.09;4913222;28;104260;-83
2021/07/04 11:36:15;;;;;;;;;4.33;4.33;;;;;23.08;48.30;97997.81;4913431;28;105600;-84
2021/07/04 11:38:52;;;;;;;;;3.67;3.00;;;;;23.12;48.13;97987.81;4907895;28;102195;-84